National Weather Service Raw Text Product

Displaying AFOS PIL: TAFALO Received: 2018-01-12 04:51 UTC


844 
FTUS43 KDMX 120451 AAB
TAFALO
TAF AMD
KALO 120451Z 1205/1224 32016G24KT P6SM SCT012
      TEMPO 1205/1207 BKN012
     FM120700 32018G26KT P6SM FEW025
     FM120900 33018KT P6SM SCT070
     FM121400 34012KT P6SM SKC=